Tropical Cyclones
[Index]
Main Index Home Page Stock Weather Photos Extreme Storms Discussion Storm News and Storm Chasing Reports Tropical Cyclones / Hurricanes / Typhoons Weather Data and Links Wild Fires / Bushfires Weather Observation Techniques Weather Picture Catalogue Tornado Pictures and Reports Stock Video Footage and DVDs for sale
Season 1973-1974 Tropical Cyclone WANDA Track Map
Season 1973-1974 Summaries: [BoM-AU] [JTWC-AU] [JTWC-SIO] [JTWC-SPAC] [JTWC-SH]
<<- Previous TC | BoM 1973-1974 Season | Next TC ->>

click for intensity scale information  Lat/long Grid: Show Hide

 Date Labels: Show Hide

Bureau of Meteorology Tropical Cyclone Data

Name: WANDA
Number: 521 / 197374_11

20 Jan 1974 14:00 UTC to 25 Jan 1974 08:00 UTC

    date/time    lat    long    hPa   cat  kts
1974-01-20 14   17.7   148.8   1004                     
1974-01-20 17   18.0   149.3   1002                     
1974-01-20 20   18.2   149.7   1002                     
1974-01-20 23   18.3   150.0   1003                     
1974-01-21 02   18.4   150.2   1004                     
1974-01-21 05   18.4   150.4   1002                     
1974-01-21 08   18.5   150.6   1003                     
1974-01-21 11   18.6   150.8   1004                     
1974-01-21 14   18.6   151.2   1004                     
1974-01-21 17   18.6   151.7   1002                     
1974-01-21 20   18.6   152.3   1003                     
1974-01-21 23   18.6   152.7   1004                     
1974-01-22 02   18.6   152.9   1004                     
1974-01-22 05   18.6   153.0   1003                     
1974-01-22 08   18.7   153.1   1004                     
1974-01-22 11   18.8   153.2   1006                     
1974-01-22 14   19.0   153.3   1005                     
1974-01-22 17   19.2   153.5   1004                     
1974-01-22 20   19.5   153.9   1005                     
1974-01-22 23   19.9   154.3   1005                     
1974-01-23 02   20.3   154.5   1005                     
1974-01-23 05   20.7   154.5   1003                     
1974-01-23 08   21.1   154.4   1002                     
1974-01-23 11   21.5   154.2   1000                     
1974-01-23 14   22.1   154.0   1000                     
1974-01-23 17   22.6   153.8    999                     
1974-01-23 20   23.1   153.7    999                     
1974-01-23 23   23.8   153.6   1000                     
1974-01-24 02   24.6   153.5   1000                     
1974-01-24 05   25.2   153.4    997                     
1974-01-24 08   25.5   153.1    997                     
1974-01-24 11   25.8   152.8    998                     
1974-01-24 14   26.1   152.5    998                     
1974-01-24 17   26.3   152.2   1000                     
1974-01-24 20   26.6   151.9   1003                     
1974-01-24 23   26.9   151.4   1003                     
1974-01-25 02   27.0   151.0   1003                     
1974-01-25 05   27.2   150.5   1001                     
1974-01-25 08   27.3   149.9   1003                     
Winds are 10-min average.

Tropical cyclone tracks developed by Michael Bath using data from the Bureau of Meteorology and Google Maps.


[Australian Severe Weather index] [Copyright Notice] [Email Contacts] [Search This Site] [Privacy Policy]
Document: tropical_cyclone_wanda.htm Updated: 30 May 2013